sensor_id;sensor_type;location;lat;lon;timestamp;temperature;humidity
8436;DHT22;4255;48.730;9.156;2023-04-06T00:01:27;3.90;1.00
8436;DHT22;4255;48.730;9.156;2023-04-06T00:03:53;3.90;1.00
8436;DHT22;4255;48.730;9.156;2023-04-06T00:06:18;3.90;1.00
8436;DHT22;4255;48.730;9.156;2023-04-06T00:08:44;3.90;1.00
8436;DHT22;4255;48.730;9.156;2023-04-06T00:11:10;3.90;1.00
8436;DHT22;4255;48.730;9.156;2023-04-06T00:13:35;3.90;1.00
8436;DHT22;4255;48.730;9.156;2023-04-06T00:16:01;3.90;1.00
8436;DHT22;4255;48.730;9.156;2023-04-06T00:18:27;3.90;1.00
8436;DHT22;4255;48.730;9.156;2023-04-06T00:20:53;3.90;1.00
8436;DHT22;4255;48.730;9.156;2023-04-06T00:23:18;3.80;1.00
8436;DHT22;4255;48.730;9.156;2023-04-06T00:25:44;3.80;1.00
8436;DHT22;4255;48.730;9.156;2023-04-06T00:28:10;3.70;1.00
8436;DHT22;4255;48.730;9.156;2023-04-06T00:30:35;3.80;1.00
8436;DHT22;4255;48.730;9.156;2023-04-06T00:33:01;3.80;1.00
8436;DHT22;4255;48.730;9.156;2023-04-06T00:35:27;3.80;1.00
8436;DHT22;4255;48.730;9.156;2023-04-06T00:37:52;3.80;1.00
8436;DHT22;4255;48.730;9.156;2023-04-06T00:40:18;3.70;1.00
8436;DHT22;4255;48.730;9.156;2023-04-06T00:42:44;3.60;1.00
8436;DHT22;4255;48.730;9.156;2023-04-06T00:45:10;3.70;1.00
8436;DHT22;4255;48.730;9.156;2023-04-06T00:47:36;3.70;1.00
8436;DHT22;4255;48.730;9.156;2023-04-06T00:50:02;3.70;1.00
8436;DHT22;4255;48.730;9.156;2023-04-06T00:52:28;3.70;1.00
8436;DHT22;4255;48.730;9.156;2023-04-06T00:54:53;3.60;1.00
8436;DHT22;4255;48.730;9.156;2023-04-06T00:57:19;3.60;1.00
8436;DHT22;4255;48.730;9.156;2023-04-06T00:59:45;3.60;1.00
8436;DHT22;4255;48.730;9.156;2023-04-06T01:02:10;3.50;7.00
8436;DHT22;4255;48.730;9.156;2023-04-06T01:04:36;3.40;99.90
8436;DHT22;4255;48.730;9.156;2023-04-06T01:07:02;3.40;99.90
8436;DHT22;4255;48.730;9.156;2023-04-06T01:09:29;3.50;99.90
8436;DHT22;4255;48.730;9.156;2023-04-06T01:11:59;3.30;1.00
8436;DHT22;4255;48.730;9.156;2023-04-06T01:14:25;3.10;1.00
8436;DHT22;4255;48.730;9.156;2023-04-06T01:16:51;3.10;43.70
8436;DHT22;4255;48.730;9.156;2023-04-06T01:19:17;2.90;99.90
8436;DHT22;4255;48.730;9.156;2023-04-06T01:21:43;2.90;99.90
8436;DHT22;4255;48.730;9.156;2023-04-06T01:24:09;2.90;1.00
8436;DHT22;4255;48.730;9.156;2023-04-06T01:26:36;3.00;99.90
8436;DHT22;4255;48.730;9.156;2023-04-06T01:29:03;3.00;99.90
8436;DHT22;4255;48.730;9.156;2023-04-06T01:31:29;3.10;1.00
8436;DHT22;4255;48.730;9.156;2023-04-06T01:33:55;3.10;1.00
8436;DHT22;4255;48.730;9.156;2023-04-06T01:36:21;3.10;1.00
8436;DHT22;4255;48.730;9.156;2023-04-06T01:38:47;3.10;1.00
8436;DHT22;4255;48.730;9.156;2023-04-06T01:41:12;3.20;1.00
8436;DHT22;4255;48.730;9.156;2023-04-06T01:43:38;3.20;1.00
8436;DHT22;4255;48.730;9.156;2023-04-06T01:46:04;3.20;99.90
8436;DHT22;4255;48.730;9.156;2023-04-06T01:48:31;3.20;99.90
8436;DHT22;4255;48.730;9.156;2023-04-06T01:50:56;3.10;99.90
8436;DHT22;4255;48.730;9.156;2023-04-06T01:53:22;3.20;99.90
8436;DHT22;4255;48.730;9.156;2023-04-06T01:55:47;3.10;99.90
8436;DHT22;4255;48.730;9.156;2023-04-06T01:58:13;3.20;99.90
8436;DHT22;4255;48.730;9.156;2023-04-06T02:00:40;3.10;99.90
8436;DHT22;4255;48.730;9.156;2023-04-06T02:03:06;3.10;99.90
8436;DHT22;4255;48.730;9.156;2023-04-06T02:05:32;3.10;1.00
8436;DHT22;4255;48.730;9.156;2023-04-06T02:08:04;3.00;1.00
8436;DHT22;4255;48.730;9.156;2023-04-06T02:10:31;2.90;1.00
8436;DHT22;4255;48.730;9.156;2023-04-06T02:12:57;2.90;1.00
8436;DHT22;4255;48.730;9.156;2023-04-06T02:15:23;2.90;1.00
8436;DHT22;4255;48.730;9.156;2023-04-06T02:17:48;2.90;1.00
8436;DHT22;4255;48.730;9.156;2023-04-06T02:20:14;2.80;1.00
8436;DHT22;4255;48.730;9.156;2023-04-06T02:22:40;2.70;1.00
8436;DHT22;4255;48.730;9.156;2023-04-06T02:25:06;2.70;59.80
8436;DHT22;4255;48.730;9.156;2023-04-06T02:27:32;2.70;99.90
8436;DHT22;4255;48.730;9.156;2023-04-06T02:29:57;2.70;99.90
8436;DHT22;4255;48.730;9.156;2023-04-06T02:32:23;2.70;99.90
8436;DHT22;4255;48.730;9.156;2023-04-06T02:34:49;2.70;99.90
8436;DHT22;4255;48.730;9.156;2023-04-06T02:37:14;2.70;99.90
8436;DHT22;4255;48.730;9.156;2023-04-06T02:39:41;2.70;99.90
8436;DHT22;4255;48.730;9.156;2023-04-06T02:42:06;2.70;99.90
8436;DHT22;4255;48.730;9.156;2023-04-06T02:44:32;2.70;99.90
8436;DHT22;4255;48.730;9.156;2023-04-06T02:46:58;2.70;99.90
8436;DHT22;4255;48.730;9.156;2023-04-06T02:49:23;2.60;99.90
8436;DHT22;4255;48.730;9.156;2023-04-06T02:51:49;2.70;99.90
8436;DHT22;4255;48.730;9.156;2023-04-06T02:54:14;2.70;99.90
8436;DHT22;4255;48.730;9.156;2023-04-06T02:56:40;2.60;99.90
8436;DHT22;4255;48.730;9.156;2023-04-06T02:59:06;2.60;99.90
8436;DHT22;4255;48.730;9.156;2023-04-06T03:01:31;2.60;99.90
8436;DHT22;4255;48.730;9.156;2023-04-06T03:03:57;2.50;99.90
8436;DHT22;4255;48.730;9.156;2023-04-06T03:06:23;2.50;99.90
8436;DHT22;4255;48.730;9.156;2023-04-06T03:08:48;2.40;1.00
8436;DHT22;4255;48.730;9.156;2023-04-06T03:11:14;2.30;1.00
8436;DHT22;4255;48.730;9.156;2023-04-06T03:13:40;2.30;99.90
8436;DHT22;4255;48.730;9.156;2023-04-06T03:16:06;2.40;1.00
8436;DHT22;4255;48.730;9.156;2023-04-06T03:18:31;2.30;1.00
8436;DHT22;4255;48.730;9.156;2023-04-06T03:20:58;2.30;1.00
8436;DHT22;4255;48.730;9.156;2023-04-06T03:23:23;2.40;99.90
8436;DHT22;4255;48.730;9.156;2023-04-06T03:25:49;2.40;99.90
8436;DHT22;4255;48.730;9.156;2023-04-06T03:28:15;2.40;99.90
8436;DHT22;4255;48.730;9.156;2023-04-06T03:30:41;2.30;99.90
8436;DHT22;4255;48.730;9.156;2023-04-06T03:33:07;2.30;87.50
8436;DHT22;4255;48.730;9.156;2023-04-06T03:35:32;2.30;99.90
8436;DHT22;4255;48.730;9.156;2023-04-06T03:37:58;2.20;99.90
8436;DHT22;4255;48.730;9.156;2023-04-06T03:40:24;2.20;99.90
8436;DHT22;4255;48.730;9.156;2023-04-06T03:42:50;2.10;1.00
8436;DHT22;4255;48.730;9.156;2023-04-06T03:45:16;2.10;1.00
8436;DHT22;4255;48.730;9.156;2023-04-06T03:47:41;2.10;1.00
8436;DHT22;4255;48.730;9.156;2023-04-06T03:50:07;2.10;1.00
8436;DHT22;4255;48.730;9.156;2023-04-06T03:52:34;2.10;1.00
8436;DHT22;4255;48.730;9.156;2023-04-06T03:55:00;2.20;1.00
8436;DHT22;4255;48.730;9.156;2023-04-06T03:57:26;2.20;99.90
8436;DHT22;4255;48.730;9.156;2023-04-06T03:59:51;2.20;99.90
8436;DHT22;4255;48.730;9.156;2023-04-06T04:02:17;2.30;99.90
8436;DHT22;4255;48.730;9.156;2023-04-06T04:04:43;2.30;99.90
8436;DHT22;4255;48.730;9.156;2023-04-06T04:07:08;2.10;1.00
8436;DHT22;4255;48.730;9.156;2023-04-06T04:09:34;2.00;1.00
8436;DHT22;4255;48.730;9.156;2023-04-06T04:11:59;2.00;1.00
8436;DHT22;4255;48.730;9.156;2023-04-06T04:14:25;2.00;1.00
8436;DHT22;4255;48.730;9.156;2023-04-06T04:16:51;2.00;99.90
8436;DHT22;4255;48.730;9.156;2023-04-06T04:19:17;2.00;99.90
8436;DHT22;4255;48.730;9.156;2023-04-06T04:21:44;2.00;99.90
8436;DHT22;4255;48.730;9.156;2023-04-06T04:24:10;2.10;99.90
8436;DHT22;4255;48.730;9.156;2023-04-06T04:26:36;2.20;1.00
8436;DHT22;4255;48.730;9.156;2023-04-06T04:29:02;2.10;99.90
8436;DHT22;4255;48.730;9.156;2023-04-06T04:31:28;2.10;1.00
8436;DHT22;4255;48.730;9.156;2023-04-06T04:33:53;2.20;93.30
8436;DHT22;4255;48.730;9.156;2023-04-06T04:36:19;2.20;1.00
8436;DHT22;4255;48.730;9.156;2023-04-06T04:38:45;2.10;99.90
8436;DHT22;4255;48.730;9.156;2023-04-06T04:41:11;2.10;1.00
8436;DHT22;4255;48.730;9.156;2023-04-06T04:43:36;2.10;1.00
8436;DHT22;4255;48.730;9.156;2023-04-06T04:46:02;2.30;1.00
8436;DHT22;4255;48.730;9.156;2023-04-06T04:48:29;2.40;99.90
8436;DHT22;4255;48.730;9.156;2023-04-06T04:50:55;2.30;10.90
8436;DHT22;4255;48.730;9.156;2023-04-06T04:53:20;2.10;99.90
8436;DHT22;4255;48.730;9.156;2023-04-06T04:55:46;2.20;99.90
8436;DHT22;4255;48.730;9.156;2023-04-06T04:58:11;2.40;1.00
8436;DHT22;4255;48.730;9.156;2023-04-06T05:00:45;2.80;1.00
8436;DHT22;4255;48.730;9.156;2023-04-06T05:03:31;2.90;97.40
8436;DHT22;4255;48.730;9.156;2023-04-06T05:05:57;2.90;1.00
8436;DHT22;4255;48.730;9.156;2023-04-06T05:08:23;2.90;1.00
8436;DHT22;4255;48.730;9.156;2023-04-06T05:10:48;2.90;1.80
8436;DHT22;4255;48.730;9.156;2023-04-06T05:13:14;2.90;1.00
8436;DHT22;4255;48.730;9.156;2023-04-06T05:15:41;2.80;1.00
8436;DHT22;4255;48.730;9.156;2023-04-06T05:18:07;2.80;1.00
8436;DHT22;4255;48.730;9.156;2023-04-06T05:20:34;2.70;1.00
8436;DHT22;4255;48.730;9.156;2023-04-06T05:23:00;2.80;1.00
8436;DHT22;4255;48.730;9.156;2023-04-06T05:25:25;2.80;25.80
8436;DHT22;4255;48.730;9.156;2023-04-06T05:27:52;2.80;1.00
8436;DHT22;4255;48.730;9.156;2023-04-06T05:30:18;2.80;1.00
8436;DHT22;4255;48.730;9.156;2023-04-06T05:32:43;2.90;1.00
8436;DHT22;4255;48.730;9.156;2023-04-06T05:35:10;2.90;97.80
8436;DHT22;4255;48.730;9.156;2023-04-06T05:37:36;3.00;1.00
8436;DHT22;4255;48.730;9.156;2023-04-06T05:40:02;3.10;1.00
8436;DHT22;4255;48.730;9.156;2023-04-06T05:42:36;3.30;1.00
8436;DHT22;4255;48.730;9.156;2023-04-06T05:45:03;3.40;1.00
8436;DHT22;4255;48.730;9.156;2023-04-06T05:47:29;3.50;99.90
8436;DHT22;4255;48.730;9.156;2023-04-06T05:49:55;3.70;1.00
8436;DHT22;4255;48.730;9.156;2023-04-06T05:52:21;3.80;1.00
8436;DHT22;4255;48.730;9.156;2023-04-06T05:54:46;3.90;99.90
8436;DHT22;4255;48.730;9.156;2023-04-06T05:57:12;4.00;99.90
8436;DHT22;4255;48.730;9.156;2023-04-06T05:59:37;4.10;11.10
8436;DHT22;4255;48.730;9.156;2023-04-06T06:02:03;4.20;1.00
8436;DHT22;4255;48.730;9.156;2023-04-06T06:04:30;4.20;1.00
8436;DHT22;4255;48.730;9.156;2023-04-06T06:06:56;4.40;1.00
8436;DHT22;4255;48.730;9.156;2023-04-06T06:09:22;4.40;1.00
8436;DHT22;4255;48.730;9.156;2023-04-06T06:11:48;4.40;99.90
8436;DHT22;4255;48.730;9.156;2023-04-06T06:14:14;4.50;99.90
8436;DHT22;4255;48.730;9.156;2023-04-06T06:16:40;4.60;99.90
8436;DHT22;4255;48.730;9.156;2023-04-06T06:19:06;4.60;40.10
8436;DHT22;4255;48.730;9.156;2023-04-06T06:21:31;4.80;1.00
8436;DHT22;4255;48.730;9.156;2023-04-06T06:23:57;4.80;1.00
8436;DHT22;4255;48.730;9.156;2023-04-06T06:26:23;5.00;1.00
8436;DHT22;4255;48.730;9.156;2023-04-06T06:28:48;5.00;1.00
8436;DHT22;4255;48.730;9.156;2023-04-06T06:31:14;5.20;1.00
8436;DHT22;4255;48.730;9.156;2023-04-06T06:33:39;5.30;1.00
8436;DHT22;4255;48.730;9.156;2023-04-06T06:36:05;5.40;1.00
8436;DHT22;4255;48.730;9.156;2023-04-06T06:38:31;5.60;1.00
8436;DHT22;4255;48.730;9.156;2023-04-06T06:40:57;5.50;99.90
8436;DHT22;4255;48.730;9.156;2023-04-06T06:43:22;5.70;99.90
8436;DHT22;4255;48.730;9.156;2023-04-06T06:45:48;5.70;99.90
8436;DHT22;4255;48.730;9.156;2023-04-06T06:48:14;5.80;99.90
8436;DHT22;4255;48.730;9.156;2023-04-06T06:50:39;5.90;99.90
8436;DHT22;4255;48.730;9.156;2023-04-06T06:53:05;6.10;99.90
8436;DHT22;4255;48.730;9.156;2023-04-06T06:55:31;6.10;99.90
8436;DHT22;4255;48.730;9.156;2023-04-06T06:57:56;6.30;99.90
8436;DHT22;4255;48.730;9.156;2023-04-06T07:00:22;6.50;99.90
8436;DHT22;4255;48.730;9.156;2023-04-06T07:02:48;6.60;99.90
8436;DHT22;4255;48.730;9.156;2023-04-06T07:05:15;6.70;99.90
8436;DHT22;4255;48.730;9.156;2023-04-06T07:07:41;6.90;99.90
8436;DHT22;4255;48.730;9.156;2023-04-06T07:10:07;6.80;99.90
8436;DHT22;4255;48.730;9.156;2023-04-06T07:12:33;6.80;99.90
8436;DHT22;4255;48.730;9.156;2023-04-06T07:14:59;6.70;99.90
8436;DHT22;4255;48.730;9.156;2023-04-06T07:17:24;6.80;99.90
8436;DHT22;4255;48.730;9.156;2023-04-06T07:19:50;6.90;99.90
8436;DHT22;4255;48.730;9.156;2023-04-06T07:22:16;7.00;99.90
8436;DHT22;4255;48.730;9.156;2023-04-06T07:24:42;7.20;99.90
8436;DHT22;4255;48.730;9.156;2023-04-06T07:27:07;7.30;74.90
8436;DHT22;4255;48.730;9.156;2023-04-06T07:29:33;7.40;52.70
8436;DHT22;4255;48.730;9.156;2023-04-06T07:31:59;7.60;26.00
8436;DHT22;4255;48.730;9.156;2023-04-06T07:34:24;7.60;4.80
8436;DHT22;4255;48.730;9.156;2023-04-06T07:36:50;7.70;13.10
8436;DHT22;4255;48.730;9.156;2023-04-06T07:39:18;8.00;1.00
8436;DHT22;4255;48.730;9.156;2023-04-06T07:41:43;8.20;1.00
8436;DHT22;4255;48.730;9.156;2023-04-06T07:44:09;8.30;1.00
8436;DHT22;4255;48.730;9.156;2023-04-06T07:46:35;8.40;1.00
8436;DHT22;4255;48.730;9.156;2023-04-06T07:49:01;8.50;1.00
8436;DHT22;4255;48.730;9.156;2023-04-06T07:51:27;8.60;1.00
8436;DHT22;4255;48.730;9.156;2023-04-06T07:53:53;8.80;1.00
8436;DHT22;4255;48.730;9.156;2023-04-06T07:56:19;9.00;1.00
8436;DHT22;4255;48.730;9.156;2023-04-06T07:58:46;9.00;1.00
8436;DHT22;4255;48.730;9.156;2023-04-06T08:01:12;9.20;1.00
8436;DHT22;4255;48.730;9.156;2023-04-06T08:03:38;9.20;1.00
8436;DHT22;4255;48.730;9.156;2023-04-06T08:06:04;9.30;1.00
8436;DHT22;4255;48.730;9.156;2023-04-06T08:08:30;9.30;1.00
8436;DHT22;4255;48.730;9.156;2023-04-06T08:10:56;9.40;1.00
8436;DHT22;4255;48.730;9.156;2023-04-06T08:13:21;9.40;1.00
8436;DHT22;4255;48.730;9.156;2023-04-06T08:15:47;9.60;1.00
8436;DHT22;4255;48.730;9.156;2023-04-06T08:18:13;9.90;1.00
8436;DHT22;4255;48.730;9.156;2023-04-06T08:20:39;10.10;1.00
8436;DHT22;4255;48.730;9.156;2023-04-06T08:23:05;10.40;1.00
8436;DHT22;4255;48.730;9.156;2023-04-06T08:25:37;10.50;1.00
8436;DHT22;4255;48.730;9.156;2023-04-06T08:28:04;10.60;1.00
8436;DHT22;4255;48.730;9.156;2023-04-06T08:30:29;10.80;1.00
8436;DHT22;4255;48.730;9.156;2023-04-06T08:32:55;10.80;1.00
8436;DHT22;4255;48.730;9.156;2023-04-06T08:35:21;10.90;1.00
8436;DHT22;4255;48.730;9.156;2023-04-06T08:37:47;11.20;1.00
8436;DHT22;4255;48.730;9.156;2023-04-06T08:40:13;11.20;1.00
8436;DHT22;4255;48.730;9.156;2023-04-06T08:42:44;11.10;1.00
8436;DHT22;4255;48.730;9.156;2023-04-06T08:45:15;11.20;1.00
8436;DHT22;4255;48.730;9.156;2023-04-06T08:47:41;11.30;1.00
8436;DHT22;4255;48.730;9.156;2023-04-06T08:50:08;11.30;1.00
8436;DHT22;4255;48.730;9.156;2023-04-06T08:52:34;11.60;1.00
8436;DHT22;4255;48.730;9.156;2023-04-06T08:55:00;11.80;1.00
8436;DHT22;4255;48.730;9.156;2023-04-06T08:57:26;11.70;1.00
8436;DHT22;4255;48.730;9.156;2023-04-06T08:59:52;11.60;1.00
8436;DHT22;4255;48.730;9.156;2023-04-06T09:02:20;11.80;1.00
8436;DHT22;4255;48.730;9.156;2023-04-06T09:04:48;11.80;1.00
8436;DHT22;4255;48.730;9.156;2023-04-06T09:07:18;11.80;1.00
8436;DHT22;4255;48.730;9.156;2023-04-06T09:09:43;11.90;1.00
8436;DHT22;4255;48.730;9.156;2023-04-06T09:12:29;11.70;1.00
8436;DHT22;4255;48.730;9.156;2023-04-06T09:14:56;11.30;1.00
8436;DHT22;4255;48.730;9.156;2023-04-06T09:17:23;11.30;1.00
8436;DHT22;4255;48.730;9.156;2023-04-06T09:19:49;11.50;1.00
8436;DHT22;4255;48.730;9.156;2023-04-06T09:22:16;11.60;1.00
8436;DHT22;4255;48.730;9.156;2023-04-06T09:24:53;11.50;1.00
8436;DHT22;4255;48.730;9.156;2023-04-06T09:27:30;11.60;1.00
8436;DHT22;4255;48.730;9.156;2023-04-06T09:30:10;11.70;1.00
8436;DHT22;4255;48.730;9.156;2023-04-06T09:32:49;11.90;1.00
8436;DHT22;4255;48.730;9.156;2023-04-06T09:35:15;11.80;1.00
8436;DHT22;4255;48.730;9.156;2023-04-06T09:37:42;11.80;1.00
8436;DHT22;4255;48.730;9.156;2023-04-06T09:40:09;12.00;1.00
8436;DHT22;4255;48.730;9.156;2023-04-06T09:42:35;12.10;1.00
8436;DHT22;4255;48.730;9.156;2023-04-06T09:45:04;12.10;1.00
8436;DHT22;4255;48.730;9.156;2023-04-06T09:47:34;12.30;1.00
8436;DHT22;4255;48.730;9.156;2023-04-06T09:50:02;12.70;1.00
8436;DHT22;4255;48.730;9.156;2023-04-06T09:52:33;12.90;1.00
8436;DHT22;4255;48.730;9.156;2023-04-06T09:55:04;12.50;1.00
8436;DHT22;4255;48.730;9.156;2023-04-06T09:57:42;12.30;1.00
8436;DHT22;4255;48.730;9.156;2023-04-06T10:00:16;12.20;1.00
8436;DHT22;4255;48.730;9.156;2023-04-06T10:05:23;12.30;1.00
8436;DHT22;4255;48.730;9.156;2023-04-06T10:07:51;12.50;1.00
8436;DHT22;4255;48.730;9.156;2023-04-06T10:10:17;12.90;1.00
8436;DHT22;4255;48.730;9.156;2023-04-06T10:12:44;13.20;1.00
8436;DHT22;4255;48.730;9.156;2023-04-06T10:15:10;13.20;99.90
8436;DHT22;4255;48.730;9.156;2023-04-06T10:17:36;13.10;99.90
8436;DHT22;4255;48.730;9.156;2023-04-06T10:20:18;12.60;99.90
8436;DHT22;4255;48.730;9.156;2023-04-06T10:23:01;12.80;99.90
8436;DHT22;4255;48.730;9.156;2023-04-06T10:25:31;12.90;99.90
8436;DHT22;4255;48.730;9.156;2023-04-06T10:28:19;13.30;99.90
8436;DHT22;4255;48.730;9.156;2023-04-06T10:30:45;13.60;99.90
8436;DHT22;4255;48.730;9.156;2023-04-06T10:33:18;13.70;99.90
8436;DHT22;4255;48.730;9.156;2023-04-06T10:35:45;13.50;99.90
8436;DHT22;4255;48.730;9.156;2023-04-06T10:38:11;13.80;99.90
8436;DHT22;4255;48.730;9.156;2023-04-06T10:40:42;13.90;99.90
8436;DHT22;4255;48.730;9.156;2023-04-06T10:43:20;14.00;99.90
8436;DHT22;4255;48.730;9.156;2023-04-06T10:45:55;14.20;99.90
8436;DHT22;4255;48.730;9.156;2023-04-06T10:48:21;14.20;99.90
8436;DHT22;4255;48.730;9.156;2023-04-06T10:50:51;14.00;99.90
8436;DHT22;4255;48.730;9.156;2023-04-06T10:53:25;13.50;99.90
8436;DHT22;4255;48.730;9.156;2023-04-06T10:55:53;13.20;99.90
8436;DHT22;4255;48.730;9.156;2023-04-06T10:58:19;13.50;99.90
8436;DHT22;4255;48.730;9.156;2023-04-06T11:00:46;13.70;99.90
8436;DHT22;4255;48.730;9.156;2023-04-06T11:03:12;13.90;99.90
8436;DHT22;4255;48.730;9.156;2023-04-06T11:05:38;14.00;99.90
8436;DHT22;4255;48.730;9.156;2023-04-06T11:08:04;14.00;99.90
8436;DHT22;4255;48.730;9.156;2023-04-06T11:10:30;14.30;99.90
8436;DHT22;4255;48.730;9.156;2023-04-06T11:12:56;14.20;99.90
8436;DHT22;4255;48.730;9.156;2023-04-06T11:15:22;14.40;99.90
8436;DHT22;4255;48.730;9.156;2023-04-06T11:17:48;14.60;99.90
8436;DHT22;4255;48.730;9.156;2023-04-06T11:20:14;14.60;99.90
8436;DHT22;4255;48.730;9.156;2023-04-06T11:22:52;14.20;99.90
8436;DHT22;4255;48.730;9.156;2023-04-06T11:25:18;14.20;99.90
8436;DHT22;4255;48.730;9.156;2023-04-06T11:27:46;14.40;99.90
8436;DHT22;4255;48.730;9.156;2023-04-06T11:30:12;14.20;99.90
8436;DHT22;4255;48.730;9.156;2023-04-06T11:32:45;14.20;99.90
8436;DHT22;4255;48.730;9.156;2023-04-06T11:35:21;14.50;99.90
8436;DHT22;4255;48.730;9.156;2023-04-06T11:37:49;14.70;99.90
8436;DHT22;4255;48.730;9.156;2023-04-06T11:40:15;14.80;99.90
8436;DHT22;4255;48.730;9.156;2023-04-06T11:42:41;15.00;99.90
8436;DHT22;4255;48.730;9.156;2023-04-06T11:45:07;15.20;99.90
8436;DHT22;4255;48.730;9.156;2023-04-06T11:47:36;15.30;99.90
8436;DHT22;4255;48.730;9.156;2023-04-06T11:50:11;15.20;99.90
8436;DHT22;4255;48.730;9.156;2023-04-06T11:52:38;15.20;99.90
8436;DHT22;4255;48.730;9.156;2023-04-06T11:55:15;15.10;99.90
8436;DHT22;4255;48.730;9.156;2023-04-06T11:57:41;15.30;99.90
8436;DHT22;4255;48.730;9.156;2023-04-06T12:00:08;15.30;99.90
8436;DHT22;4255;48.730;9.156;2023-04-06T12:02:36;15.20;99.90
8436;DHT22;4255;48.730;9.156;2023-04-06T12:05:03;15.10;99.90
8436;DHT22;4255;48.730;9.156;2023-04-06T12:07:31;15.50;99.90
8436;DHT22;4255;48.730;9.156;2023-04-06T12:09:56;15.80;99.90
8436;DHT22;4255;48.730;9.156;2023-04-06T12:12:22;16.10;99.90
8436;DHT22;4255;48.730;9.156;2023-04-06T12:14:48;16.00;99.90
8436;DHT22;4255;48.730;9.156;2023-04-06T12:17:13;16.00;99.90
8436;DHT22;4255;48.730;9.156;2023-04-06T12:19:39;15.80;99.90
8436;DHT22;4255;48.730;9.156;2023-04-06T12:22:05;15.70;99.90
8436;DHT22;4255;48.730;9.156;2023-04-06T12:24:31;15.70;99.90
8436;DHT22;4255;48.730;9.156;2023-04-06T12:26:57;15.80;99.90
8436;DHT22;4255;48.730;9.156;2023-04-06T12:29:24;15.90;99.90
8436;DHT22;4255;48.730;9.156;2023-04-06T12:31:50;16.20;99.90
8436;DHT22;4255;48.730;9.156;2023-04-06T12:34:16;16.30;99.90
8436;DHT22;4255;48.730;9.156;2023-04-06T12:36:42;16.00;99.90
8436;DHT22;4255;48.730;9.156;2023-04-06T12:39:08;16.00;99.90
8436;DHT22;4255;48.730;9.156;2023-04-06T12:41:33;15.80;99.90
8436;DHT22;4255;48.730;9.156;2023-04-06T12:43:59;15.70;99.90
8436;DHT22;4255;48.730;9.156;2023-04-06T12:46:25;15.40;99.90
8436;DHT22;4255;48.730;9.156;2023-04-06T12:48:52;15.40;99.90
8436;DHT22;4255;48.730;9.156;2023-04-06T12:51:21;15.40;99.90
8436;DHT22;4255;48.730;9.156;2023-04-06T12:53:47;15.60;99.90
8436;DHT22;4255;48.730;9.156;2023-04-06T12:56:17;15.70;99.90
8436;DHT22;4255;48.730;9.156;2023-04-06T12:58:43;15.40;99.90
8436;DHT22;4255;48.730;9.156;2023-04-06T13:01:10;15.60;99.90
8436;DHT22;4255;48.730;9.156;2023-04-06T13:03:38;15.70;99.90
8436;DHT22;4255;48.730;9.156;2023-04-06T13:06:04;15.80;99.90
8436;DHT22;4255;48.730;9.156;2023-04-06T13:08:30;16.10;99.90
8436;DHT22;4255;48.730;9.156;2023-04-06T13:10:55;16.40;99.90
8436;DHT22;4255;48.730;9.156;2023-04-06T13:13:26;16.20;99.90
8436;DHT22;4255;48.730;9.156;2023-04-06T13:16:06;16.30;99.90
8436;DHT22;4255;48.730;9.156;2023-04-06T13:18:33;16.60;99.90
8436;DHT22;4255;48.730;9.156;2023-04-06T13:20:59;16.90;99.90
8436;DHT22;4255;48.730;9.156;2023-04-06T13:23:25;17.30;99.90
8436;DHT22;4255;48.730;9.156;2023-04-06T13:26:02;17.20;99.90
8436;DHT22;4255;48.730;9.156;2023-04-06T13:28:29;16.80;99.90
8436;DHT22;4255;48.730;9.156;2023-04-06T13:30:55;16.70;99.90
8436;DHT22;4255;48.730;9.156;2023-04-06T13:33:21;16.80;99.90
8436;DHT22;4255;48.730;9.156;2023-04-06T13:35:47;16.70;99.90
8436;DHT22;4255;48.730;9.156;2023-04-06T13:38:13;16.60;99.90
8436;DHT22;4255;48.730;9.156;2023-04-06T13:40:39;16.50;99.90
8436;DHT22;4255;48.730;9.156;2023-04-06T13:43:06;16.50;99.90
8436;DHT22;4255;48.730;9.156;2023-04-06T13:45:31;16.20;99.90
8436;DHT22;4255;48.730;9.156;2023-04-06T13:47:57;16.10;99.90
8436;DHT22;4255;48.730;9.156;2023-04-06T13:50:26;16.10;99.90
8436;DHT22;4255;48.730;9.156;2023-04-06T13:52:52;15.80;99.90
8436;DHT22;4255;48.730;9.156;2023-04-06T13:55:17;15.80;99.90
8436;DHT22;4255;48.730;9.156;2023-04-06T13:57:43;16.10;99.90
8436;DHT22;4255;48.730;9.156;2023-04-06T14:00:09;16.50;99.90
8436;DHT22;4255;48.730;9.156;2023-04-06T14:02:37;16.70;99.90
8436;DHT22;4255;48.730;9.156;2023-04-06T14:05:02;16.60;99.90
8436;DHT22;4255;48.730;9.156;2023-04-06T14:07:28;16.40;99.90
8436;DHT22;4255;48.730;9.156;2023-04-06T14:09:54;16.30;99.90
8436;DHT22;4255;48.730;9.156;2023-04-06T14:12:20;16.30;99.90
8436;DHT22;4255;48.730;9.156;2023-04-06T14:14:46;16.30;99.90
8436;DHT22;4255;48.730;9.156;2023-04-06T14:17:11;16.40;99.90
8436;DHT22;4255;48.730;9.156;2023-04-06T14:19:37;16.60;99.90
8436;DHT22;4255;48.730;9.156;2023-04-06T14:22:03;16.90;99.90
8436;DHT22;4255;48.730;9.156;2023-04-06T14:24:29;16.70;99.90
8436;DHT22;4255;48.730;9.156;2023-04-06T14:26:55;16.50;99.90
8436;DHT22;4255;48.730;9.156;2023-04-06T14:29:23;16.40;99.90
8436;DHT22;4255;48.730;9.156;2023-04-06T14:31:49;16.80;99.90
8436;DHT22;4255;48.730;9.156;2023-04-06T14:34:15;16.90;99.90
8436;DHT22;4255;48.730;9.156;2023-04-06T14:36:42;16.80;99.90
8436;DHT22;4255;48.730;9.156;2023-04-06T14:39:08;16.50;99.90
8436;DHT22;4255;48.730;9.156;2023-04-06T14:41:35;16.20;99.90
8436;DHT22;4255;48.730;9.156;2023-04-06T14:44:01;15.50;99.90
8436;DHT22;4255;48.730;9.156;2023-04-06T14:46:27;15.60;99.90
8436;DHT22;4255;48.730;9.156;2023-04-06T14:48:56;15.80;99.90
8436;DHT22;4255;48.730;9.156;2023-04-06T14:51:25;15.50;99.90
8436;DHT22;4255;48.730;9.156;2023-04-06T14:53:52;15.40;99.90
8436;DHT22;4255;48.730;9.156;2023-04-06T14:56:20;15.60;99.90
8436;DHT22;4255;48.730;9.156;2023-04-06T14:58:46;16.00;99.90
8436;DHT22;4255;48.730;9.156;2023-04-06T15:01:12;16.40;99.90
8436;DHT22;4255;48.730;9.156;2023-04-06T15:03:37;16.40;99.90
8436;DHT22;4255;48.730;9.156;2023-04-06T15:06:03;16.50;99.90
8436;DHT22;4255;48.730;9.156;2023-04-06T15:08:28;16.60;99.90
8436;DHT22;4255;48.730;9.156;2023-04-06T15:10:59;16.20;99.90
8436;DHT22;4255;48.730;9.156;2023-04-06T15:13:25;16.00;99.90
8436;DHT22;4255;48.730;9.156;2023-04-06T15:15:51;15.90;99.90
8436;DHT22;4255;48.730;9.156;2023-04-06T15:18:18;15.80;99.90
8436;DHT22;4255;48.730;9.156;2023-04-06T15:20:43;16.00;99.90
8436;DHT22;4255;48.730;9.156;2023-04-06T15:23:09;16.00;99.90
8436;DHT22;4255;48.730;9.156;2023-04-06T15:25:35;15.90;99.90
8436;DHT22;4255;48.730;9.156;2023-04-06T15:28:00;16.00;99.90
8436;DHT22;4255;48.730;9.156;2023-04-06T15:30:26;15.90;99.90
8436;DHT22;4255;48.730;9.156;2023-04-06T15:32:58;15.80;99.90
8436;DHT22;4255;48.730;9.156;2023-04-06T15:35:26;15.70;99.90
8436;DHT22;4255;48.730;9.156;2023-04-06T15:37:53;15.40;99.90
8436;DHT22;4255;48.730;9.156;2023-04-06T15:40:18;15.00;99.90
8436;DHT22;4255;48.730;9.156;2023-04-06T15:42:44;14.70;99.90
8436;DHT22;4255;48.730;9.156;2023-04-06T15:45:10;14.50;99.90
8436;DHT22;4255;48.730;9.156;2023-04-06T15:47:43;14.50;99.90
8436;DHT22;4255;48.730;9.156;2023-04-06T15:50:10;14.30;99.90
8436;DHT22;4255;48.730;9.156;2023-04-06T15:52:36;14.30;99.90
8436;DHT22;4255;48.730;9.156;2023-04-06T15:55:03;14.20;99.90
8436;DHT22;4255;48.730;9.156;2023-04-06T15:57:29;14.20;99.90
8436;DHT22;4255;48.730;9.156;2023-04-06T15:59:55;14.20;99.90
8436;DHT22;4255;48.730;9.156;2023-04-06T16:02:21;14.30;99.90
8436;DHT22;4255;48.730;9.156;2023-04-06T16:04:59;14.30;99.90
8436;DHT22;4255;48.730;9.156;2023-04-06T16:07:28;14.40;99.90
8436;DHT22;4255;48.730;9.156;2023-04-06T16:09:54;14.30;99.90
8436;DHT22;4255;48.730;9.156;2023-04-06T16:12:21;14.40;99.90
8436;DHT22;4255;48.730;9.156;2023-04-06T16:14:47;14.00;99.90
8436;DHT22;4255;48.730;9.156;2023-04-06T16:17:12;13.90;99.90